Latest Weather Observations for Redcliffe

IDQ60801

Issued at 7:52 am EST Tuesday 6 December 2022 (issued every 10 minutes, with the page automatically refreshed every 10 minutes)

About weather observations | Map of weather stations | Latest weather observations for QLD | Other Formats
Station Details ID: 040958 Name: REDCLIFFE Lat: -27.22 Lon: 153.09 Height: 12.6 m
Data from the previous 72 hours. | See also: Recent months at Redcliffe
Date/Time
EST
Temp
°C
App
Temp
°C
Dew
Point
°C
Rel
Hum
%
Delta-T
°C
Wind Press
QNH
hPa
Press
MSL
hPa
Rain since
9am
mm
Dir  Spd
km/h
Gust
km/h
Spd
kts
Gust
kts
06/07:30am 23.9 26.4 20.2 80 2.4 NE 7 7 4 4 1008.1 1008.0 0.0
06/07:00am 22.7 25.1 19.7 83 1.9 NE 6 7 3 4 1008.3 1008.2 0.0
06/06:30am 21.7 24.8 20.2 91 1.0 N 4 7 2 4 1008.1 1008.0 0.0
06/06:00am 20.3 24.0 20.0 98 0.2 CALM 0 0 0 0 1007.9 1007.8 0.0
06/05:30am 19.7 23.2 19.5 99 0.1 CALM 0 0 0 0 1007.5 1007.4 0.0
06/05:00am 18.9 21.2 18.6 98 0.2 WSW 4 7 2 4 1007.3 1007.2 0.0
06/04:30am 19.2 21.0 18.7 97 0.3 WNW 7 9 4 5 1007.2 1007.1 0.0
06/04:00am 19.7 21.2 18.9 95 0.5 NNW 9 13 5 7 1006.9 1006.8 0.0
06/03:30am 20.5 22.2 19.3 93 0.8 NNW 9 15 5 8 1006.7 1006.6 0.0
06/03:00am 20.4 21.7 19.2 93 0.8 NNW 11 15 6 8 1006.6 1006.5 0.0
06/02:30am 21.0 22.1 19.7 92 0.8 N 13 19 7 10 1006.7 1006.6 0.0
06/02:00am 21.4 22.4 20.2 93 0.8 N 15 19 8 10 1006.7 1006.6 0.0
06/01:30am 21.3 23.1 20.3 94 0.6 N 11 13 6 7 1007.3 1007.2 0.0
06/01:00am 21.6 23.9 20.6 94 0.6 NNW 9 11 5 6 1007.6 1007.5 0.0
06/12:30am 21.4 23.7 20.7 96 0.5 NW 9 11 5 6 1008.0 1007.9 0.0
06/12:00am 21.4 23.2 20.4 94 0.6 N 11 13 6 7 1008.3 1008.2 0.0
 
Date/Time
EST
Temp
°C
App
Temp
°C
Dew
Point
°C
Rel
Hum
%
Delta-T
°C
Wind Press
QNH
hPa
Press
MSL
hPa
Rain since
9am
mm
Dir  Spd
km/h
Gust
km/h
Spd
kts
Gust
kts
05/11:30pm 21.8 23.7 20.6 93 0.8 N 11 15 6 8 1008.6 1008.5 0.0
05/11:00pm 22.3 23.4 20.4 89 1.2 N 15 17 8 9 1008.8 1008.7 0.0
05/10:30pm 22.4 23.6 20.7 90 1.1 NNE 15 17 8 9 1009.1 1009.0 0.0
05/10:00pm 22.2 23.6 20.3 89 1.2 N 13 17 7 9 1009.2 1009.1 0.0
05/09:30pm 22.3 23.0 20.4 89 1.2 NNE 17 19 9 10 1009.0 1008.9 0.0
05/09:00pm 22.3 23.4 20.4 89 1.2 NNE 15 17 8 9 1009.1 1009.0 0.0
05/08:30pm 22.4 24.6 20.3 88 1.4 NE 9 13 5 7 1009.0 1008.9 0.0
05/08:00pm 22.6 23.6 20.3 87 1.5 ENE 15 17 8 9 1008.7 1008.6 0.0
05/07:30pm 22.9 23.9 20.2 85 1.7 ENE 15 17 8 9 1008.4 1008.3 0.0
05/07:00pm 23.1 24.7 19.9 82 2.1 ENE 11 13 6 7 1008.1 1008.0 0.0
05/06:30pm 23.3 24.7 19.5 79 2.4 E 11 13 6 7 1007.8 1007.7 0.0
05/06:00pm 23.9 25.0 18.8 73 3.2 ENE 11 13 6 7 1007.4 1007.3 0.0
05/05:30pm 24.1 24.7 18.7 72 3.4 E 13 15 7 8 1007.1 1007.0 0.0
05/05:00pm 24.4 25.0 19.5 74 3.2 E 15 17 8 9 1007.0 1006.9 0.0
05/04:30pm 24.6 25.2 19.4 73 3.3 E 15 19 8 10 1007.0 1006.9 0.0
05/04:00pm 24.8 24.8 19.0 70 3.7 E 17 20 9 11 1006.9 1006.8 0.0
05/03:30pm 24.9 24.7 19.3 71 3.6 E 19 22 10 12 1007.1 1007.0 0.0
05/03:00pm 24.8 23.9 19.0 70 3.7 E 22 26 12 14 1007.2 1007.1 0.0
05/02:30pm 25.4 24.6 19.3 69 3.9 E 22 26 12 14 1007.4 1007.3 0.0
05/02:00pm 26.0 26.6 19.4 67 4.3 ENE 15 17 8 9 1007.8 1007.7 0.0
05/01:30pm 25.2 25.1 17.9 64 4.6 E 15 17 8 9 1008.3 1008.2 0.0
05/01:00pm 25.6 25.9 18.0 63 4.8 E 13 15 7 8 1008.8 1008.7 0.0
05/12:30pm 25.9 25.4 17.0 58 5.5 ESE 15 19 8 10 1009.0 1008.9 0.0
05/12:00pm 25.8 25.5 17.4 59 5.3 ESE 15 17 8 9 1009.5 1009.4 0.0
05/11:30am 26.1 25.9 18.5 63 4.8 SE 17 19 9 10 1009.9 1009.8 0.0
05/11:00am 25.3 24.7 17.5 62 4.9 SE 17 22 9 12 1010.2 1010.1 0.0
05/10:30am 24.8 24.1 17.3 63 4.7 SE 17 20 9 11 1010.5 1010.4 0.0
05/10:00am 25.6 25.6 17.3 60 5.2 SE 13 17 7 9 1010.7 1010.6 0.0
05/09:30am 25.3 24.5 17.2 61 5.0 SSE 17 20 9 11 1010.8 1010.7 0.0
05/09:00am 24.8 24.6 17.5 64 4.6 S 15 19 8 10 1011.1 1011.0 0.0
05/08:30am 24.4 23.4 16.6 61 4.8 S 17 24 9 13 1011.1 1011.0 0.0
05/08:00am 24.0 22.7 16.8 64 4.4 S 19 26 10 14 1011.0 1010.9 0.0
05/07:30am 23.0 21.8 16.1 65 4.2 S 17 28 9 15 1010.8 1010.7 0.0
05/07:00am 22.2 20.5 16.2 69 3.6 SSW 20 28 11 15 1010.8 1010.7 0.0
05/06:30am 20.5 18.7 15.9 75 2.7 SSW 20 28 11 15 1010.6 1010.5 0.0
05/06:00am 19.2 18.2 15.5 79 2.2 SSW 15 24 8 13 1010.6 1010.5 0.0
05/05:30am 18.0 16.9 15.3 84 1.6 SW 15 20 8 11 1010.3 1010.2 0.0
05/05:00am 17.5 16.3 15.0 85 1.5 SW 15 20 8 11 1010.1 1010.0 0.0
05/04:30am 17.6 16.8 15.0 85 1.5 SW 13 17 7 9 1010.0 1009.9 0.0
05/04:00am 17.8 17.0 15.1 84 1.6 SW 13 20 7 11 1010.0 1009.9 0.0
05/03:30am 18.3 17.5 15.0 81 1.9 SW 13 19 7 10 1010.0 1009.9 0.0
05/03:00am 18.8 17.8 15.5 81 1.9 SSW 15 19 8 10 1010.1 1010.0 0.0
05/02:30am 19.4 17.6 16.1 81 2.0 SSW 20 30 11 16 1010.1 1010.0 0.0
05/02:00am 19.3 15.3 16.2 82 1.9 S 32 37 17 20 1010.4 1010.3 0.0
05/01:30am 19.5 15.9 16.3 82 1.9 S 30 35 16 19 1010.7 1010.6 0.0
05/01:00am 20.0 16.5 16.4 80 2.2 S 30 39 16 21 1011.2 1011.1 0.0
05/12:30am 20.0 16.1 16.4 80 2.2 S 32 39 17 21 1011.6 1011.5 0.0
05/12:00am 20.3 16.4 16.5 79 2.3 S 32 35 17 19 1012.1 1012.0 0.0
 
Date/Time
EST
Temp
°C
App
Temp
°C
Dew
Point
°C
Rel
Hum
%
Delta-T
°C
Wind Press
QNH
hPa
Press
MSL
hPa
Rain since
9am
mm
Dir  Spd
km/h
Gust
km/h
Spd
kts
Gust
kts
04/11:30pm 20.5 16.6 16.5 78 2.4 SSE 32 37 17 20 1012.3 1012.2 0.0
04/11:00pm 20.7 16.7 16.3 76 2.7 S 32 37 17 20 1012.8 1012.7 0.0
04/10:30pm 20.8 16.9 16.4 76 2.7 SSE 32 37 17 20 1013.0 1012.9 0.0
04/10:00pm 20.9 17.1 16.7 77 2.5 SSE 32 37 17 20 1013.2 1013.1 0.0
04/09:30pm 20.9 17.2 16.9 78 2.4 SSE 32 37 17 20 1013.2 1013.1 0.0
04/09:00pm 20.4 17.1 17.0 81 2.1 SSE 30 35 16 19 1013.2 1013.1 0.0
04/08:30pm 21.3 17.4 16.9 76 2.7 SSE 33 39 18 21 1013.0 1012.9 0.0
04/08:00pm 21.4 17.4 16.6 74 2.9 SSE 33 37 18 20 1012.7 1012.6 0.0
04/07:30pm 21.5 17.2 16.9 75 2.8 SSE 35 41 19 22 1012.7 1012.6 0.0
04/07:00pm 21.3 17.4 16.9 76 2.7 SSE 33 39 18 21 1012.5 1012.4 0.0
04/06:30pm 21.5 16.5 17.1 76 2.7 SSE 39 48 21 26 1012.2 1012.1 0.0
04/06:00pm 21.0 16.6 17.6 81 2.1 SE 37 41 20 22 1011.9 1011.8 0.0
04/05:30pm 21.9 17.3 17.9 78 2.5 SE 39 43 21 23 1011.7 1011.6 0.0
04/05:00pm 22.1 18.2 17.9 77 2.6 SE 35 41 19 22 1011.3 1011.2 0.0
04/04:30pm 22.6 17.5 16.9 70 3.5 SE 39 46 21 25 1011.0 1010.9 0.0
04/04:00pm 23.5 19.1 17.5 69 3.7 SSE 37 44 20 24 1010.8 1010.7 0.0
04/03:30pm 22.9 17.9 17.1 70 3.6 SE 39 46 21 25 1010.9 1010.8 0.0
04/03:00pm 23.6 18.8 17.6 69 3.7 SE 39 46 21 25 1011.0 1010.9 0.0
04/02:30pm 23.4 18.3 16.9 67 4.0 SE 39 46 21 25 1011.1 1011.0 0.0
04/02:00pm 23.5 17.9 17.5 69 3.7 SE 43 50 23 27 1011.4 1011.3 0.0
04/01:30pm 23.5 18.8 17.7 70 3.6 SE 39 48 21 26 1011.6 1011.5 0.0
04/01:00pm 22.7 17.8 17.2 71 3.4 SE 39 46 21 25 1011.8 1011.7 0.0
04/12:30pm 24.4 19.4 17.1 63 4.5 SE 39 44 21 24 1012.1 1012.0 0.0
04/12:00pm 23.9 19.7 17.2 66 4.1 SE 35 43 19 23 1012.3 1012.2 0.0
04/11:30am 24.1 20.2 16.4 62 4.7 SE 32 37 17 20 1012.6 1012.5 0.0
04/11:00am 25.1 21.7 18.1 65 4.4 SSE 33 39 18 21 1012.9 1012.8 0.0
04/10:30am 24.5 20.5 17.7 66 4.2 SSE 35 39 19 21 1013.1 1013.0 0.0
04/10:00am 23.9 19.6 16.9 65 4.3 SSE 35 41 19 22 1013.4 1013.3 0.0
04/09:30am 24.5 20.7 16.7 61 4.8 S 32 37 17 20 1013.6 1013.5 0.0
04/09:00am 24.0 20.9 16.5 63 4.6 S 28 33 15 18 1013.9 1013.8 0.2
04/08:30am 22.6 19.0 16.2 67 3.9 S 30 35 16 19 1013.8 1013.7 0.2
04/08:00am 22.7 20.5 17.8 74 3.0 S 26 35 14 19 1014.0 1013.9 0.2
04/07:30am 21.5 18.3 16.2 72 3.2 S 28 37 15 20 1014.0 1013.9 0.2
04/07:00am 20.2 17.3 15.2 73 2.9 S 24 33 13 18 1014.2 1014.1 0.2
04/06:30am 20.0 17.1 15.2 74 2.8 S 24 33 13 18 1014.0 1013.9 0.2
04/06:00am 18.2 16.0 14.3 78 2.2 SSW 19 26 10 14 1013.7 1013.6 0.2
04/05:30am 17.8 15.9 14.1 79 2.1 SSW 17 24 9 13 1013.3 1013.2 0.2
04/05:00am 17.4 15.1 14.1 81 1.9 SSW 19 30 10 16 1013.1 1013.0 0.2
04/04:30am 17.0 15.0 13.9 82 1.8 SW 17 24 9 13 1012.7 1012.6 0.2
04/04:00am 16.7 14.7 14.0 84 1.5 SSW 17 24 9 13 1012.7 1012.6 0.2
04/03:30am 16.7 14.8 14.2 85 1.4 SSW 17 26 9 14 1012.8 1012.7 0.2
04/03:00am 16.9 15.0 14.2 84 1.5 SSW 17 28 9 15 1012.8 1012.7 0.2
04/02:30am 17.2 15.4 14.5 84 1.6 SSW 17 26 9 14 1012.8 1012.7 0.2
04/02:00am 17.2 15.8 14.5 84 1.6 SW 15 22 8 12 1012.9 1012.8 0.2
04/01:30am 16.9 15.6 14.9 88 1.2 SW 15 19 8 10 1013.3 1013.2 0.2
04/01:00am 16.9 16.1 15.2 90 1.0 SW 13 17 7 9 1013.4 1013.3 0.2
04/12:30am 17.4 16.6 15.2 87 1.3 SW 13 19 7 10 1013.8 1013.7 0.2
04/12:00am 17.7 15.9 15.5 87 1.3 SSW 19 28 10 15 1014.1 1014.0 0.2
 
Date/Time
EST
Temp
°C
App
Temp
°C
Dew
Point
°C
Rel
Hum
%
Delta-T
°C
Wind Press
QNH
hPa
Press
MSL
hPa
Rain since
9am
mm
Dir  Spd
km/h
Gust
km/h
Spd
kts
Gust
kts
03/11:30pm 18.2 14.0 15.8 86 1.4 S 32 43 17 23 1014.5 1014.4 0.2
03/11:00pm 18.1 14.6 15.4 84 1.6 SSW 28 39 15 21 1014.7 1014.6 0.2
03/10:30pm 18.3 13.0 15.4 83 1.7 S 37 48 20 26 1014.9 1014.8 0.2
03/10:00pm 19.3 13.7 15.4 78 2.3 S 39 50 21 27 1014.9 1014.8 0.2
03/09:54pm 18.9 13.7 15.6 81 1.9 S 37 50 20 27 1014.9 1014.8 0.2
03/09:30pm 18.4 14.2 15.6 84 1.6 SSE 32 48 17 26 1015.0 1014.9 0.0
03/09:00pm 19.7 15.8 14.3 71 3.1 S 28 44 15 24 1014.5 1014.4 0.0
03/08:30pm 19.2 15.9 14.9 76 2.5 S 26 32 14 17 1014.5 1014.4 0.0
03/08:00pm 20.6 15.7 14.3 67 3.7 S 33 48 18 26 1014.3 1014.2 0.0
03/07:30pm 20.4 15.7 14.3 68 3.5 S 32 39 17 21 1014.0 1013.9 0.0
03/07:00pm 20.8 14.7 14.2 66 3.8 S 39 46 21 25 1013.6 1013.5 0.0
03/06:30pm 21.5 15.5 14.4 64 4.2 SSE 39 48 21 26 1013.3 1013.2 0.0
03/06:00pm 22.1 14.5 13.5 58 5.0 SSE 46 54 25 29 1012.9 1012.8 0.0
03/05:30pm 22.3 15.5 14.4 61 4.6 SSE 43 50 23 27 1012.7 1012.6 0.0
03/05:00pm 22.9 16.1 14.7 60 4.9 SSE 44 52 24 28 1012.4 1012.3 0.0
03/04:30pm 23.2 16.1 13.9 56 5.4 SSE 44 52 24 28 1012.4 1012.3 0.0
03/04:00pm 22.9 15.4 13.9 57 5.3 SSE 46 56 25 30 1012.4 1012.3 0.0
03/03:30pm 23.3 15.9 14.3 57 5.3 SE 46 52 25 28 1012.1 1012.0 0.0
03/03:00pm 23.8 15.5 13.9 54 5.8 SE 50 57 27 31 1012.2 1012.1 0.0
03/02:30pm 23.8 17.0 14.8 57 5.4 SE 44 56 24 30 1012.4 1012.3 0.0
03/02:00pm 23.2 16.7 15.0 60 4.9 SE 43 50 23 27 1012.4 1012.3 0.0
03/01:30pm 23.0 17.8 15.6 63 4.4 SE 37 44 20 24 1012.7 1012.6 0.0
03/01:00pm 24.1 17.3 15.9 60 5.0 SSE 46 54 25 29 1012.7 1012.6 0.0
03/12:30pm 23.5 18.2 17.3 68 3.8 SSE 41 50 22 27 1012.9 1012.8 0.0
03/12:00pm 23.4 16.9 15.5 61 4.7 SSE 44 59 24 32 1012.8 1012.7 0.0
03/11:30am 23.9 17.6 16.2 62 4.7 SE 44 52 24 28 1012.7 1012.6 0.0
03/11:00am 24.4 17.7 15.1 56 5.6 SSE 44 52 24 28 1013.1 1013.0 0.0
03/10:30am 24.3 17.3 15.2 57 5.5 SSE 46 56 25 30 1013.2 1013.1 0.0
03/10:00am 23.6 16.9 14.6 57 5.3 SSE 43 52 23 28 1013.4 1013.3 0.0
03/09:30am 23.6 17.9 15.1 59 5.1 SSE 39 48 21 26 1013.6 1013.5 0.0
03/09:00am 23.4 17.9 14.7 58 5.2 S 37 46 20 25 1013.6 1013.5 0.0
03/08:30am 22.7 18.2 14.8 61 4.7 S 32 37 17 20 1013.7 1013.6 0.0
03/08:00am 22.4 19.3 14.5 61 4.6 S 24 32 13 17 1013.6 1013.5 0.0

Other formats

Comma delimited format used in spreadsheet applications
http://www.bom.gov.au/fwo/IDQ60801/IDQ60801.95591.axf

JavaScript Object Notation format (JSON) in row-major order
http://www.bom.gov.au/fwo/IDQ60801/IDQ60801.95591.json

Data quality

Most of these data are generated automatically and are frequently updated. Quality checks on data are not normally performed. It is possible for incorrect values to appear. Refer to information at About Latest Weather Observations and please check the disclaimer before using these data.